sensor_id;sensor_type;location;lat;lon;timestamp;pressure;altitude;pressure_sealevel;temperature;humidity
64141;BME280;50436;50.618;7.932;2022-11-20T00:02:20;96004.63;;;-0.17;100.00
64141;BME280;50436;50.618;7.932;2022-11-20T00:05:06;95993.84;;;-0.29;100.00
64141;BME280;50436;50.618;7.932;2022-11-20T00:07:52;95993.28;;;-0.74;100.00
64141;BME280;50436;50.618;7.932;2022-11-20T00:10:56;96000.75;;;-0.77;100.00
64141;BME280;50436;50.618;7.932;2022-11-20T00:13:46;95998.19;;;-0.92;100.00
64141;BME280;50436;50.618;7.932;2022-11-20T00:16:32;95981.72;;;-1.22;100.00
64141;BME280;50436;50.618;7.932;2022-11-20T00:19:19;95988.09;;;-1.10;100.00
64141;BME280;50436;50.618;7.932;2022-11-20T00:22:05;95989.72;;;-1.09;100.00
64141;BME280;50436;50.618;7.932;2022-11-20T00:24:50;95987.03;;;-1.16;100.00
64141;BME280;50436;50.618;7.932;2022-11-20T00:27:36;95978.34;;;-1.16;100.00
64141;BME280;50436;50.618;7.932;2022-11-20T00:30:22;95987.34;;;-1.04;100.00
64141;BME280;50436;50.618;7.932;2022-11-20T00:33:08;95978.59;;;-1.11;100.00
64141;BME280;50436;50.618;7.932;2022-11-20T00:35:59;95988.78;;;-1.01;100.00
64141;BME280;50436;50.618;7.932;2022-11-20T00:38:51;95996.16;;;-0.90;100.00
64141;BME280;50436;50.618;7.932;2022-11-20T00:41:38;95991.34;;;-0.87;100.00
64141;BME280;50436;50.618;7.932;2022-11-20T00:44:23;95993.69;;;-0.70;100.00
64141;BME280;50436;50.618;7.932;2022-11-20T00:47:09;95978.53;;;-0.75;100.00
64141;BME280;50436;50.618;7.932;2022-11-20T00:49:55;95979.38;;;-0.68;100.00
64141;BME280;50436;50.618;7.932;2022-11-20T00:52:41;95987.97;;;-0.80;100.00
64141;BME280;50436;50.618;7.932;2022-11-20T00:55:27;95989.66;;;-0.94;100.00
64141;BME280;50436;50.618;7.932;2022-11-20T00:58:13;95982.56;;;-0.94;100.00
64141;BME280;50436;50.618;7.932;2022-11-20T01:01:15;95999.53;;;-0.75;100.00
64141;BME280;50436;50.618;7.932;2022-11-20T01:04:01;95990.97;;;-0.83;100.00
64141;BME280;50436;50.618;7.932;2022-11-20T01:06:47;95986.59;;;-0.76;100.00
64141;BME280;50436;50.618;7.932;2022-11-20T01:09:33;95993.59;;;-0.62;100.00
64141;BME280;50436;50.618;7.932;2022-11-20T01:12:19;95997.84;;;-0.33;100.00
64141;BME280;50436;50.618;7.932;2022-11-20T01:15:05;95986.41;;;-0.19;100.00
64141;BME280;50436;50.618;7.932;2022-11-20T01:17:51;95975.28;;;-0.21;100.00
64141;BME280;50436;50.618;7.932;2022-11-20T01:20:37;95978.28;;;-0.24;100.00
64141;BME280;50436;50.618;7.932;2022-11-20T01:23:22;95983.09;;;-0.56;100.00
64141;BME280;50436;50.618;7.932;2022-11-20T01:26:13;95979.81;;;-0.64;100.00
64141;BME280;50436;50.618;7.932;2022-11-20T01:29:00;95981.94;;;-0.53;100.00
64141;BME280;50436;50.618;7.932;2022-11-20T01:31:47;95984.78;;;-0.48;100.00
64141;BME280;50436;50.618;7.932;2022-11-20T01:34:33;95984.56;;;-0.53;100.00
64141;BME280;50436;50.618;7.932;2022-11-20T01:37:18;95978.06;;;-0.57;100.00
64141;BME280;50436;50.618;7.932;2022-11-20T01:40:05;95972.94;;;-0.37;100.00
64141;BME280;50436;50.618;7.932;2022-11-20T01:43:06;95964.59;;;-0.13;100.00
64141;BME280;50436;50.618;7.932;2022-11-20T01:46:16;95975.09;;;-0.19;100.00
64141;BME280;50436;50.618;7.932;2022-11-20T01:49:05;95970.44;;;-0.17;100.00
64141;BME280;50436;50.618;7.932;2022-11-20T01:52:00;95964.47;;;-0.33;100.00
64141;BME280;50436;50.618;7.932;2022-11-20T01:55:02;95963.41;;;-0.45;100.00
64141;BME280;50436;50.618;7.932;2022-11-20T01:57:52;95968.97;;;-0.26;100.00
64141;BME280;50436;50.618;7.932;2022-11-20T02:00:38;95968.16;;;-0.27;100.00
64141;BME280;50436;50.618;7.932;2022-11-20T02:03:24;95953.47;;;-0.15;100.00
64141;BME280;50436;50.618;7.932;2022-11-20T02:06:20;95956.50;;;-0.11;100.00
64141;BME280;50436;50.618;7.932;2022-11-20T02:09:10;95950.28;;;-0.04;100.00
64141;BME280;50436;50.618;7.932;2022-11-20T02:11:57;95949.72;;;0.01;100.00
64141;BME280;50436;50.618;7.932;2022-11-20T02:14:43;95946.91;;;-0.25;100.00
64141;BME280;50436;50.618;7.932;2022-11-20T02:17:29;95953.69;;;-0.10;100.00
64141;BME280;50436;50.618;7.932;2022-11-20T02:20:15;95953.03;;;-0.18;100.00
64141;BME280;50436;50.618;7.932;2022-11-20T02:26:22;95954.16;;;-0.34;100.00
64141;BME280;50436;50.618;7.932;2022-11-20T02:29:09;95951.41;;;-0.19;100.00
64141;BME280;50436;50.618;7.932;2022-11-20T02:31:56;95946.59;;;-0.09;100.00
64141;BME280;50436;50.618;7.932;2022-11-20T02:34:43;95937.97;;;-0.38;100.00
64141;BME280;50436;50.618;7.932;2022-11-20T02:37:32;95946.56;;;-0.22;100.00
64141;BME280;50436;50.618;7.932;2022-11-20T02:40:20;95951.63;;;-0.21;100.00
64141;BME280;50436;50.618;7.932;2022-11-20T02:43:07;95948.47;;;-0.38;100.00
64141;BME280;50436;50.618;7.932;2022-11-20T02:45:54;95933.88;;;-0.40;100.00
64141;BME280;50436;50.618;7.932;2022-11-20T02:48:40;95945.75;;;-0.51;100.00
64141;BME280;50436;50.618;7.932;2022-11-20T02:51:25;95943.53;;;-0.54;100.00
64141;BME280;50436;50.618;7.932;2022-11-20T02:54:12;95936.34;;;-0.39;100.00
64141;BME280;50436;50.618;7.932;2022-11-20T02:56:58;95932.81;;;-0.18;100.00
64141;BME280;50436;50.618;7.932;2022-11-20T02:59:43;95937.34;;;-0.05;100.00
64141;BME280;50436;50.618;7.932;2022-11-20T03:02:32;95937.41;;;0.15;100.00
64141;BME280;50436;50.618;7.932;2022-11-20T03:05:18;95927.75;;;0.28;100.00
64141;BME280;50436;50.618;7.932;2022-11-20T03:08:04;95925.72;;;0.24;100.00
64141;BME280;50436;50.618;7.932;2022-11-20T03:10:50;95933.88;;;0.42;100.00
64141;BME280;50436;50.618;7.932;2022-11-20T03:13:35;95930.63;;;0.34;100.00
64141;BME280;50436;50.618;7.932;2022-11-20T03:16:22;95939.06;;;0.22;100.00
64141;BME280;50436;50.618;7.932;2022-11-20T03:19:09;95940.72;;;0.23;100.00
64141;BME280;50436;50.618;7.932;2022-11-20T03:21:55;95924.28;;;0.21;100.00
64141;BME280;50436;50.618;7.932;2022-11-20T03:24:40;95924.94;;;0.37;100.00
64141;BME280;50436;50.618;7.932;2022-11-20T03:27:26;95923.34;;;0.36;100.00
64141;BME280;50436;50.618;7.932;2022-11-20T03:30:13;95921.94;;;0.46;100.00
64141;BME280;50436;50.618;7.932;2022-11-20T03:32:59;95923.19;;;0.57;100.00
64141;BME280;50436;50.618;7.932;2022-11-20T03:35:45;95923.16;;;0.44;100.00
64141;BME280;50436;50.618;7.932;2022-11-20T03:38:31;95930.31;;;0.63;100.00
64141;BME280;50436;50.618;7.932;2022-11-20T03:41:20;95928.31;;;0.72;100.00
64141;BME280;50436;50.618;7.932;2022-11-20T03:44:08;95929.31;;;0.77;100.00
64141;BME280;50436;50.618;7.932;2022-11-20T03:46:54;95933.16;;;0.75;100.00
64141;BME280;50436;50.618;7.932;2022-11-20T03:49:40;95922.84;;;0.73;100.00
64141;BME280;50436;50.618;7.932;2022-11-20T03:52:32;95919.19;;;0.74;100.00
64141;BME280;50436;50.618;7.932;2022-11-20T03:55:21;95925.66;;;0.65;100.00
64141;BME280;50436;50.618;7.932;2022-11-20T03:58:07;95894.22;;;0.50;100.00
64141;BME280;50436;50.618;7.932;2022-11-20T04:00:55;95897.06;;;0.49;100.00
64141;BME280;50436;50.618;7.932;2022-11-20T04:03:42;95901.19;;;0.10;100.00
64141;BME280;50436;50.618;7.932;2022-11-20T04:06:38;95913.06;;;-0.07;100.00
64141;BME280;50436;50.618;7.932;2022-11-20T04:09:24;95922.25;;;-0.24;100.00
64141;BME280;50436;50.618;7.932;2022-11-20T04:12:09;95920.88;;;-0.20;100.00
64141;BME280;50436;50.618;7.932;2022-11-20T04:14:55;95903.00;;;0.10;100.00
64141;BME280;50436;50.618;7.932;2022-11-20T04:17:41;95915.63;;;0.27;100.00
64141;BME280;50436;50.618;7.932;2022-11-20T04:20:27;95919.66;;;0.23;100.00
64141;BME280;50436;50.618;7.932;2022-11-20T04:23:13;95922.34;;;0.43;100.00
64141;BME280;50436;50.618;7.932;2022-11-20T04:26:10;95917.16;;;0.63;100.00
64141;BME280;50436;50.618;7.932;2022-11-20T04:28:57;95925.69;;;0.78;100.00
64141;BME280;50436;50.618;7.932;2022-11-20T04:31:43;95911.72;;;0.78;100.00
64141;BME280;50436;50.618;7.932;2022-11-20T04:34:29;95910.81;;;0.44;100.00
64141;BME280;50436;50.618;7.932;2022-11-20T04:37:15;95914.91;;;0.06;100.00
64141;BME280;50436;50.618;7.932;2022-11-20T04:40:01;95909.47;;;0.14;100.00
64141;BME280;50436;50.618;7.932;2022-11-20T04:42:49;95899.72;;;0.08;100.00
64141;BME280;50436;50.618;7.932;2022-11-20T04:45:35;95906.63;;;0.02;100.00
64141;BME280;50436;50.618;7.932;2022-11-20T04:48:28;95915.19;;;0.17;100.00
64141;BME280;50436;50.618;7.932;2022-11-20T04:51:15;95910.13;;;0.22;100.00
64141;BME280;50436;50.618;7.932;2022-11-20T04:54:01;95903.50;;;0.46;100.00
64141;BME280;50436;50.618;7.932;2022-11-20T04:56:47;95904.16;;;0.48;100.00
64141;BME280;50436;50.618;7.932;2022-11-20T04:59:33;95892.63;;;0.56;100.00
64141;BME280;50436;50.618;7.932;2022-11-20T05:02:20;95898.25;;;0.46;100.00
64141;BME280;50436;50.618;7.932;2022-11-20T05:05:06;95897.81;;;0.36;100.00
64141;BME280;50436;50.618;7.932;2022-11-20T05:07:52;95901.72;;;0.47;100.00
64141;BME280;50436;50.618;7.932;2022-11-20T05:10:37;95895.38;;;0.28;100.00
64141;BME280;50436;50.618;7.932;2022-11-20T05:13:23;95903.66;;;0.25;100.00
64141;BME280;50436;50.618;7.932;2022-11-20T05:16:12;95903.59;;;0.05;100.00
64141;BME280;50436;50.618;7.932;2022-11-20T05:18:58;95901.56;;;0.07;100.00
64141;BME280;50436;50.618;7.932;2022-11-20T05:21:44;95906.66;;;0.15;100.00
64141;BME280;50436;50.618;7.932;2022-11-20T05:24:29;95896.28;;;0.01;100.00
64141;BME280;50436;50.618;7.932;2022-11-20T05:27:15;95892.06;;;0.13;100.00
64141;BME280;50436;50.618;7.932;2022-11-20T05:30:03;95879.75;;;0.20;100.00
64141;BME280;50436;50.618;7.932;2022-11-20T05:32:49;95890.13;;;0.35;100.00
64141;BME280;50436;50.618;7.932;2022-11-20T05:35:35;95883.69;;;0.57;100.00
64141;BME280;50436;50.618;7.932;2022-11-20T05:38:20;95882.50;;;0.73;100.00
64141;BME280;50436;50.618;7.932;2022-11-20T05:41:18;95888.63;;;0.87;100.00
64141;BME280;50436;50.618;7.932;2022-11-20T05:44:04;95887.19;;;0.91;100.00
64141;BME280;50436;50.618;7.932;2022-11-20T05:46:50;95881.94;;;1.04;100.00
64141;BME280;50436;50.618;7.932;2022-11-20T05:49:36;95878.06;;;1.00;100.00
64141;BME280;50436;50.618;7.932;2022-11-20T05:52:22;95874.44;;;0.88;100.00
64141;BME280;50436;50.618;7.932;2022-11-20T05:55:08;95870.56;;;0.83;100.00
64141;BME280;50436;50.618;7.932;2022-11-20T05:57:54;95875.81;;;0.83;100.00
64141;BME280;50436;50.618;7.932;2022-11-20T06:00:40;95875.63;;;0.85;100.00
64141;BME280;50436;50.618;7.932;2022-11-20T06:03:26;95879.91;;;0.86;100.00
64141;BME280;50436;50.618;7.932;2022-11-20T06:06:12;95887.97;;;0.84;100.00
64141;BME280;50436;50.618;7.932;2022-11-20T06:08:58;95880.50;;;0.81;100.00
64141;BME280;50436;50.618;7.932;2022-11-20T06:11:44;95884.34;;;0.86;100.00
64141;BME280;50436;50.618;7.932;2022-11-20T06:14:30;95873.81;;;0.92;100.00
64141;BME280;50436;50.618;7.932;2022-11-20T06:17:16;95875.66;;;1.11;100.00
64141;BME280;50436;50.618;7.932;2022-11-20T06:20:03;95871.56;;;1.29;100.00
64141;BME280;50436;50.618;7.932;2022-11-20T06:22:48;95872.38;;;1.36;100.00
64141;BME280;50436;50.618;7.932;2022-11-20T06:25:39;95876.41;;;1.45;100.00
64141;BME280;50436;50.618;7.932;2022-11-20T06:28:25;95869.53;;;1.44;100.00
64141;BME280;50436;50.618;7.932;2022-11-20T06:31:13;95884.31;;;1.52;100.00
64141;BME280;50436;50.618;7.932;2022-11-20T06:34:02;95881.47;;;1.47;100.00
64141;BME280;50436;50.618;7.932;2022-11-20T06:36:49;95889.81;;;1.44;100.00
64141;BME280;50436;50.618;7.932;2022-11-20T06:39:35;95883.31;;;1.46;100.00
64141;BME280;50436;50.618;7.932;2022-11-20T06:42:23;95887.56;;;1.47;100.00
64141;BME280;50436;50.618;7.932;2022-11-20T06:45:09;95879.84;;;1.52;100.00
64141;BME280;50436;50.618;7.932;2022-11-20T06:47:57;95890.59;;;1.57;100.00
64141;BME280;50436;50.618;7.932;2022-11-20T06:50:43;95892.59;;;1.62;100.00
64141;BME280;50436;50.618;7.932;2022-11-20T06:53:28;95901.34;;;1.62;100.00
64141;BME280;50436;50.618;7.932;2022-11-20T06:56:14;95903.38;;;1.60;100.00
64141;BME280;50436;50.618;7.932;2022-11-20T06:59:04;95895.44;;;1.67;100.00
64141;BME280;50436;50.618;7.932;2022-11-20T07:01:50;95898.47;;;1.71;100.00
64141;BME280;50436;50.618;7.932;2022-11-20T07:04:36;95899.09;;;1.73;100.00
64141;BME280;50436;50.618;7.932;2022-11-20T07:07:26;95907.00;;;1.79;100.00
64141;BME280;50436;50.618;7.932;2022-11-20T07:10:12;95899.09;;;1.79;100.00
64141;BME280;50436;50.618;7.932;2022-11-20T07:12:58;95902.72;;;1.78;100.00
64141;BME280;50436;50.618;7.932;2022-11-20T07:15:44;95913.69;;;1.82;100.00
64141;BME280;50436;50.618;7.932;2022-11-20T07:18:30;95908.84;;;1.72;100.00
64141;BME280;50436;50.618;7.932;2022-11-20T07:21:16;95909.66;;;1.53;100.00
64141;BME280;50436;50.618;7.932;2022-11-20T07:24:03;95923.28;;;1.56;100.00
64141;BME280;50436;50.618;7.932;2022-11-20T07:26:49;95910.50;;;1.40;100.00
64141;BME280;50436;50.618;7.932;2022-11-20T07:29:41;95910.72;;;1.25;100.00
64141;BME280;50436;50.618;7.932;2022-11-20T07:32:27;95921.88;;;1.41;100.00
64141;BME280;50436;50.618;7.932;2022-11-20T07:35:13;95912.91;;;1.55;100.00
64141;BME280;50436;50.618;7.932;2022-11-20T07:37:59;95917.56;;;1.66;100.00
64141;BME280;50436;50.618;7.932;2022-11-20T07:40:45;95925.28;;;1.74;100.00
64141;BME280;50436;50.618;7.932;2022-11-20T07:43:31;95926.28;;;1.80;100.00
64141;BME280;50436;50.618;7.932;2022-11-20T07:46:19;95925.06;;;1.82;100.00
64141;BME280;50436;50.618;7.932;2022-11-20T07:49:05;95927.47;;;1.84;100.00
64141;BME280;50436;50.618;7.932;2022-11-20T07:51:51;95926.25;;;1.86;100.00
64141;BME280;50436;50.618;7.932;2022-11-20T07:54:39;95920.97;;;1.86;100.00
64141;BME280;50436;50.618;7.932;2022-11-20T07:57:25;95930.31;;;1.89;100.00
64141;BME280;50436;50.618;7.932;2022-11-20T08:00:12;95937.41;;;1.88;100.00
64141;BME280;50436;50.618;7.932;2022-11-20T08:03:03;95927.69;;;1.76;100.00
64141;BME280;50436;50.618;7.932;2022-11-20T08:05:49;95948.41;;;1.72;100.00
64141;BME280;50436;50.618;7.932;2022-11-20T08:08:34;95946.16;;;1.69;100.00
64141;BME280;50436;50.618;7.932;2022-11-20T08:11:24;95933.78;;;1.70;100.00
64141;BME280;50436;50.618;7.932;2022-11-20T08:14:28;95936.03;;;1.73;100.00
64141;BME280;50436;50.618;7.932;2022-11-20T08:17:14;95944.97;;;1.72;100.00
64141;BME280;50436;50.618;7.932;2022-11-20T08:20:00;95939.28;;;1.68;100.00
64141;BME280;50436;50.618;7.932;2022-11-20T08:22:46;95943.75;;;1.74;100.00
64141;BME280;50436;50.618;7.932;2022-11-20T08:25:36;95944.13;;;1.71;100.00
64141;BME280;50436;50.618;7.932;2022-11-20T08:28:22;95955.91;;;1.62;100.00
64141;BME280;50436;50.618;7.932;2022-11-20T08:31:08;95956.94;;;1.48;100.00
64141;BME280;50436;50.618;7.932;2022-11-20T08:33:55;95953.09;;;1.44;100.00
64141;BME280;50436;50.618;7.932;2022-11-20T08:36:44;95952.06;;;1.38;100.00
64141;BME280;50436;50.618;7.932;2022-11-20T08:39:30;95949.66;;;1.43;100.00
64141;BME280;50436;50.618;7.932;2022-11-20T08:42:16;95954.28;;;1.48;100.00
64141;BME280;50436;50.618;7.932;2022-11-20T08:45:02;95954.13;;;1.49;100.00
64141;BME280;50436;50.618;7.932;2022-11-20T08:47:48;95952.47;;;1.61;100.00
64141;BME280;50436;50.618;7.932;2022-11-20T08:50:34;95952.47;;;1.61;100.00
64141;BME280;50436;50.618;7.932;2022-11-20T08:53:19;95936.41;;;1.76;100.00
64141;BME280;50436;50.618;7.932;2022-11-20T08:56:06;95945.13;;;1.83;100.00
64141;BME280;50436;50.618;7.932;2022-11-20T08:58:52;95947.56;;;1.85;100.00
64141;BME280;50436;50.618;7.932;2022-11-20T09:01:38;95956.69;;;1.89;100.00
64141;BME280;50436;50.618;7.932;2022-11-20T09:04:24;95947.56;;;1.91;100.00
64141;BME280;50436;50.618;7.932;2022-11-20T09:07:10;95958.69;;;2.07;100.00
64141;BME280;50436;50.618;7.932;2022-11-20T09:09:56;95958.09;;;1.91;100.00
64141;BME280;50436;50.618;7.932;2022-11-20T09:12:42;95954.88;;;1.76;100.00
64141;BME280;50436;50.618;7.932;2022-11-20T09:15:28;95952.59;;;2.00;100.00
64141;BME280;50436;50.618;7.932;2022-11-20T09:18:13;95942.81;;;2.20;100.00
64141;BME280;50436;50.618;7.932;2022-11-20T09:21:01;95943.59;;;2.27;100.00
64141;BME280;50436;50.618;7.932;2022-11-20T09:23:47;95939.53;;;2.24;100.00
64141;BME280;50436;50.618;7.932;2022-11-20T09:26:33;95948.03;;;2.33;100.00
64141;BME280;50436;50.618;7.932;2022-11-20T09:29:18;95953.50;;;2.38;100.00
64141;BME280;50436;50.618;7.932;2022-11-20T09:32:04;95953.25;;;2.53;100.00
64141;BME280;50436;50.618;7.932;2022-11-20T09:34:51;95963.81;;;2.53;100.00
64141;BME280;50436;50.618;7.932;2022-11-20T09:37:36;95960.19;;;2.41;100.00
64141;BME280;50436;50.618;7.932;2022-11-20T09:40:27;95956.09;;;2.51;100.00
64141;BME280;50436;50.618;7.932;2022-11-20T09:43:38;95959.94;;;2.56;100.00
64141;BME280;50436;50.618;7.932;2022-11-20T09:49:43;95960.63;;;2.38;100.00
64141;BME280;50436;50.618;7.932;2022-11-20T09:52:47;95954.47;;;2.50;100.00
64141;BME280;50436;50.618;7.932;2022-11-20T09:55:40;95957.72;;;2.53;100.00
64141;BME280;50436;50.618;7.932;2022-11-20T09:58:45;95952.44;;;2.53;100.00
64141;BME280;50436;50.618;7.932;2022-11-20T10:01:36;95953.22;;;2.60;100.00
64141;BME280;50436;50.618;7.932;2022-11-20T10:04:29;95946.31;;;2.59;100.00
64141;BME280;50436;50.618;7.932;2022-11-20T10:07:38;95948.97;;;2.59;100.00
64141;BME280;50436;50.618;7.932;2022-11-20T10:13:40;95940.28;;;2.45;100.00
64141;BME280;50436;50.618;7.932;2022-11-20T10:22:52;95934.53;;;2.55;100.00
64141;BME280;50436;50.618;7.932;2022-11-20T10:25:55;95927.19;;;2.63;100.00
64141;BME280;50436;50.618;7.932;2022-11-20T10:31:55;95929.13;;;2.81;100.00
64141;BME280;50436;50.618;7.932;2022-11-20T10:35:38;95924.44;;;2.83;100.00
64141;BME280;50436;50.618;7.932;2022-11-20T10:38:31;95924.22;;;2.85;100.00
64141;BME280;50436;50.618;7.932;2022-11-20T10:41:20;95923.22;;;3.11;100.00
64141;BME280;50436;50.618;7.932;2022-11-20T10:44:20;95916.09;;;3.11;100.00
64141;BME280;50436;50.618;7.932;2022-11-20T10:47:25;95928.47;;;3.17;100.00
64141;BME280;50436;50.618;7.932;2022-11-20T10:50:16;95926.00;;;3.22;100.00
64141;BME280;50436;50.618;7.932;2022-11-20T10:56:09;95919.34;;;3.13;100.00
64141;BME280;50436;50.618;7.932;2022-11-20T10:59:11;95913.38;;;3.24;100.00
64141;BME280;50436;50.618;7.932;2022-11-20T11:01:58;95909.06;;;3.30;100.00
64141;BME280;50436;50.618;7.932;2022-11-20T11:04:47;95904.09;;;3.15;100.00
64141;BME280;50436;50.618;7.932;2022-11-20T11:07:38;95903.84;;;3.42;100.00
64141;BME280;50436;50.618;7.932;2022-11-20T11:13:30;95893.13;;;3.37;100.00
64141;BME280;50436;50.618;7.932;2022-11-20T11:16:24;95887.06;;;3.54;100.00
64141;BME280;50436;50.618;7.932;2022-11-20T11:19:13;95888.84;;;3.60;100.00
64141;BME280;50436;50.618;7.932;2022-11-20T11:21:59;95887.75;;;3.68;100.00
64141;BME280;50436;50.618;7.932;2022-11-20T11:24:52;95892.34;;;3.54;100.00
64141;BME280;50436;50.618;7.932;2022-11-20T11:27:51;95882.50;;;3.43;100.00
64141;BME280;50436;50.618;7.932;2022-11-20T11:30:43;95881.94;;;3.34;100.00
64141;BME280;50436;50.618;7.932;2022-11-20T11:33:31;95867.63;;;3.42;100.00
64141;BME280;50436;50.618;7.932;2022-11-20T11:36:22;95865.31;;;3.52;100.00
64141;BME280;50436;50.618;7.932;2022-11-20T11:39:14;95872.06;;;3.48;100.00
64141;BME280;50436;50.618;7.932;2022-11-20T11:42:01;95871.84;;;3.25;100.00
64141;BME280;50436;50.618;7.932;2022-11-20T11:44:48;95869.47;;;3.42;100.00
64141;BME280;50436;50.618;7.932;2022-11-20T11:47:54;95861.41;;;3.55;100.00
64141;BME280;50436;50.618;7.932;2022-11-20T11:50:49;95847.75;;;3.58;100.00
64141;BME280;50436;50.618;7.932;2022-11-20T11:53:38;95849.09;;;3.24;100.00
64141;BME280;50436;50.618;7.932;2022-11-20T11:56:27;95846.13;;;3.39;100.00
64141;BME280;50436;50.618;7.932;2022-11-20T11:59:23;95836.91;;;3.23;100.00
64141;BME280;50436;50.618;7.932;2022-11-20T12:02:24;95843.91;;;3.11;100.00
64141;BME280;50436;50.618;7.932;2022-11-20T12:08:21;95841.97;;;3.24;100.00
64141;BME280;50436;50.618;7.932;2022-11-20T12:11:18;95848.47;;;3.47;100.00
64141;BME280;50436;50.618;7.932;2022-11-20T12:14:19;95836.03;;;3.29;100.00
64141;BME280;50436;50.618;7.932;2022-11-20T12:17:13;95837.59;;;3.37;100.00
64141;BME280;50436;50.618;7.932;2022-11-20T12:19:59;95830.19;;;3.63;100.00
64141;BME280;50436;50.618;7.932;2022-11-20T12:22:56;95833.72;;;3.76;100.00
64141;BME280;50436;50.618;7.932;2022-11-20T12:25:47;95824.31;;;3.98;100.00
64141;BME280;50436;50.618;7.932;2022-11-20T12:29:05;95819.97;;;3.85;100.00
64141;BME280;50436;50.618;7.932;2022-11-20T12:44:52;95811.09;;;3.43;100.00
64141;BME280;50436;50.618;7.932;2022-11-20T13:00:33;95790.09;;;3.23;100.00
64141;BME280;50436;50.618;7.932;2022-11-20T13:03:42;95772.16;;;3.50;100.00
64141;BME280;50436;50.618;7.932;2022-11-20T13:06:31;95776.97;;;3.72;100.00
64141;BME280;50436;50.618;7.932;2022-11-20T13:09:19;95790.06;;;3.85;100.00
64141;BME280;50436;50.618;7.932;2022-11-20T13:12:16;95784.00;;;3.96;100.00
64141;BME280;50436;50.618;7.932;2022-11-20T13:18:10;95777.00;;;4.32;100.00
64141;BME280;50436;50.618;7.932;2022-11-20T13:20:57;95770.69;;;4.33;100.00
64141;BME280;50436;50.618;7.932;2022-11-20T13:23:43;95772.03;;;4.24;100.00
64141;BME280;50436;50.618;7.932;2022-11-20T13:26:29;95770.75;;;3.96;100.00
64141;BME280;50436;50.618;7.932;2022-11-20T13:29:18;95762.25;;;3.94;100.00
64141;BME280;50436;50.618;7.932;2022-11-20T13:32:17;95761.25;;;3.77;100.00
64141;BME280;50436;50.618;7.932;2022-11-20T13:35:04;95758.97;;;3.62;100.00
64141;BME280;50436;50.618;7.932;2022-11-20T13:38:00;95757.59;;;3.59;100.00
64141;BME280;50436;50.618;7.932;2022-11-20T13:43:41;95760.06;;;3.18;100.00
64141;BME280;50436;50.618;7.932;2022-11-20T13:46:39;95735.22;;;3.19;100.00
64141;BME280;50436;50.618;7.932;2022-11-20T13:49:30;95733.84;;;3.16;100.00
64141;BME280;50436;50.618;7.932;2022-11-20T13:58:44;95720.25;;;3.13;100.00
64141;BME280;50436;50.618;7.932;2022-11-20T14:01:34;95724.81;;;3.24;100.00
64141;BME280;50436;50.618;7.932;2022-11-20T14:04:28;95716.81;;;3.30;100.00
64141;BME280;50436;50.618;7.932;2022-11-20T14:07:17;95711.75;;;3.29;100.00
64141;BME280;50436;50.618;7.932;2022-11-20T14:10:04;95701.16;;;3.29;100.00
64141;BME280;50436;50.618;7.932;2022-11-20T14:12:51;95704.75;;;3.34;100.00
64141;BME280;50436;50.618;7.932;2022-11-20T14:15:37;95707.34;;;3.23;100.00
64141;BME280;50436;50.618;7.932;2022-11-20T14:18:26;95695.97;;;3.04;100.00
64141;BME280;50436;50.618;7.932;2022-11-20T14:21:22;95697.81;;;2.78;100.00
64141;BME280;50436;50.618;7.932;2022-11-20T14:24:11;95701.88;;;2.81;100.00
64141;BME280;50436;50.618;7.932;2022-11-20T14:26:57;95697.34;;;2.63;100.00
64141;BME280;50436;50.618;7.932;2022-11-20T14:29:45;95697.84;;;2.54;100.00
64141;BME280;50436;50.618;7.932;2022-11-20T14:32:34;95685.41;;;2.36;100.00
64141;BME280;50436;50.618;7.932;2022-11-20T14:35:25;95694.19;;;2.30;100.00
64141;BME280;50436;50.618;7.932;2022-11-20T14:38:18;95686.75;;;2.20;100.00
64141;BME280;50436;50.618;7.932;2022-11-20T14:41:16;95680.97;;;2.05;100.00
64141;BME280;50436;50.618;7.932;2022-11-20T14:44:02;95673.00;;;2.11;100.00
64141;BME280;50436;50.618;7.932;2022-11-20T14:46:51;95676.56;;;2.23;100.00
64141;BME280;50436;50.618;7.932;2022-11-20T14:49:38;95681.72;;;2.12;100.00
64141;BME280;50436;50.618;7.932;2022-11-20T14:52:26;95667.56;;;2.06;100.00
64141;BME280;50436;50.618;7.932;2022-11-20T14:55:13;95663.06;;;2.07;100.00
64141;BME280;50436;50.618;7.932;2022-11-20T14:58:02;95668.41;;;2.00;100.00
64141;BME280;50436;50.618;7.932;2022-11-20T15:00:56;95655.59;;;2.04;100.00
64141;BME280;50436;50.618;7.932;2022-11-20T15:03:42;95656.50;;;1.91;100.00
64141;BME280;50436;50.618;7.932;2022-11-20T15:06:28;95652.53;;;2.07;100.00
64141;BME280;50436;50.618;7.932;2022-11-20T15:09:15;95652.56;;;2.00;100.00
64141;BME280;50436;50.618;7.932;2022-11-20T15:12:02;95651.41;;;1.96;100.00
64141;BME280;50436;50.618;7.932;2022-11-20T15:14:48;95648.22;;;1.87;100.00
64141;BME280;50436;50.618;7.932;2022-11-20T15:17:37;95652.88;;;1.85;100.00
64141;BME280;50436;50.618;7.932;2022-11-20T15:20:28;95655.09;;;1.88;100.00
64141;BME280;50436;50.618;7.932;2022-11-20T15:23:17;95640.13;;;1.82;100.00
64141;BME280;50436;50.618;7.932;2022-11-20T15:26:08;95642.34;;;1.79;100.00
64141;BME280;50436;50.618;7.932;2022-11-20T15:28:54;95640.28;;;1.87;100.00
64141;BME280;50436;50.618;7.932;2022-11-20T15:31:40;95635.75;;;1.94;100.00
64141;BME280;50436;50.618;7.932;2022-11-20T15:34:28;95631.09;;;1.97;100.00
64141;BME280;50436;50.618;7.932;2022-11-20T15:37:14;95624.78;;;1.98;100.00
64141;BME280;50436;50.618;7.932;2022-11-20T15:40:00;95615.66;;;1.93;100.00
64141;BME280;50436;50.618;7.932;2022-11-20T15:42:46;95617.53;;;1.86;100.00
64141;BME280;50436;50.618;7.932;2022-11-20T15:46:13;95622.31;;;2.03;100.00
64141;BME280;50436;50.618;7.932;2022-11-20T15:49:00;95608.91;;;2.04;100.00
64141;BME280;50436;50.618;7.932;2022-11-20T15:51:48;95613.56;;;2.02;100.00
64141;BME280;50436;50.618;7.932;2022-11-20T15:54:34;95616.50;;;2.19;100.00
64141;BME280;50436;50.618;7.932;2022-11-20T15:57:20;95604.31;;;2.18;100.00
64141;BME280;50436;50.618;7.932;2022-11-20T16:00:07;95610.47;;;2.12;100.00